Time;durP1;ratioP1;P1;durP2;ratioP2;P2;SDS_P1;SDS_P2;PMS_P1;PMS_P2;Temp;Humidity;BMP_temperature;BMP_pressure;BME280_temperature;BME280_humidity;BME280_pressure;Samples;Min_cycle;Max_cycle;Signal;HPM_P1;HPM_P2
2023/03/10 00:00:19;;;;;;;;;;;;;;;4.54;100.00;98801.03;5049366;28;19921;-56
2023/03/10 00:02:49;;;;;;;;;;;;;;;4.51;100.00;98790.78;5050255;28;19942;-56
2023/03/10 00:05:19;;;;;;;;;;;;;;;4.51;100.00;98804.38;5046984;28;19929;-56
2023/03/10 00:07:44;;;;;;;;;;;;;;;4.49;100.00;98798.41;5049296;28;20373;-56
2023/03/10 00:10:13;;;;;;;;;;;;;;;4.49;100.00;98802.63;5050113;28;19979;-56
2023/03/10 00:12:39;;;;;;;;;;;;;;;4.51;100.00;98800.97;5046398;28;19920;-55
2023/03/10 00:15:05;;;;;;;;;;;;;;;4.51;100.00;98806.94;5050585;28;19940;-56
2023/03/10 00:17:30;;;;;;;;;;;;;;;4.53;100.00;98809.50;5052303;28;19917;-57
2023/03/10 00:19:55;;;;;;;;;;;;;;;4.52;100.00;98807.78;5047191;28;19924;-56
2023/03/10 00:22:21;;;;;;;;;;;;;;;4.55;100.00;98812.91;5050833;28;19963;-57
2023/03/10 00:24:46;;;;;;;;;;;;;;;4.53;100.00;98801.84;5053299;28;19929;-56
2023/03/10 00:27:11;;;;;;;;;;;;;;;4.53;100.00;98802.72;5045479;28;19917;-56
2023/03/10 00:29:37;;;;;;;;;;;;;;;4.52;100.00;98802.69;5053360;28;19927;-56
2023/03/10 00:32:02;;;;;;;;;;;;;;;4.51;100.00;98796.75;5052968;28;20433;-56
2023/03/10 00:34:27;;;;;;;;;;;;;;;4.51;100.00;98796.75;5053715;28;19979;-56
2023/03/10 00:36:52;;;;;;;;;;;;;;;4.52;100.00;98789.97;5055041;28;19974;-56
2023/03/10 00:39:18;;;;;;;;;;;;;;;4.51;100.00;98799.28;5052294;28;19924;-56
2023/03/10 00:41:43;;;;;;;;;;;;;;;4.52;100.00;98789.97;5056322;28;20278;-56
2023/03/10 00:44:09;;;;;;;;;;;;;;;4.51;100.00;98796.75;5051075;28;20428;-57
2023/03/10 00:46:37;;;;;;;;;;;;;;;4.51;100.00;98798.44;5050164;28;20293;-57
2023/03/10 00:49:04;;;;;;;;;;;;;;;4.54;100.00;98806.09;5048698;28;20007;-56
2023/03/10 00:51:29;;;;;;;;;;;;;;;4.56;100.00;98807.88;5032557;28;20070;-56
2023/03/10 00:53:55;;;;;;;;;;;;;;;4.59;100.00;98804.50;5050277;28;20425;-57
2023/03/10 00:56:24;;;;;;;;;;;;;;;4.58;100.00;98805.34;5050541;28;19917;-57
2023/03/10 00:58:50;;;;;;;;;;;;;;;4.58;100.00;98807.91;5050181;28;19917;-56
2023/03/10 01:01:16;;;;;;;;;;;;;;;4.60;100.00;98802.81;5049341;28;20714;-56
2023/03/10 01:03:41;;;;;;;;;;;;;;;4.61;100.00;98807.09;5049422;28;19917;-56
2023/03/10 01:06:06;;;;;;;;;;;;;;;4.62;100.00;98802.03;5051248;28;19917;-57
2023/03/10 01:08:32;;;;;;;;;;;;;;;4.61;100.00;98802.00;5048899;28;19931;-56
2023/03/10 01:10:57;;;;;;;;;;;;;;;4.63;100.00;98805.44;5050143;28;19933;-56
2023/03/10 01:13:22;;;;;;;;;;;;;;;4.62;100.00;98804.59;5050496;28;19927;-56
2023/03/10 01:15:49;;;;;;;;;;;;;;;4.65;100.00;98801.22;5048923;28;19921;-55
2023/03/10 01:18:15;;;;;;;;;;;;;;;4.65;100.00;98789.34;5049339;28;20011;-55
2023/03/10 01:20:41;;;;;;;;;;;;;;;4.66;100.00;98790.22;5048914;28;20378;-55
2023/03/10 01:23:07;;;;;;;;;;;;;;;4.66;100.00;98783.44;5050591;28;19921;-55
2023/03/10 01:25:32;;;;;;;;;;;;;;;4.69;100.00;98787.75;5048814;28;19928;-56
2023/03/10 01:27:57;;;;;;;;;;;;;;;4.68;100.00;98786.88;5050276;28;19917;-55
2023/03/10 01:30:23;;;;;;;;;;;;;;;4.71;100.00;98780.97;5048602;28;19921;-56
2023/03/10 01:32:48;;;;;;;;;;;;;;;4.73;100.00;98779.31;5049853;28;19970;-56
2023/03/10 01:35:13;;;;;;;;;;;;;;;4.75;100.00;98782.75;5048901;28;19932;-56
2023/03/10 01:37:38;;;;;;;;;;;;;;;4.75;100.00;98775.97;5051090;28;20015;-56
2023/03/10 01:40:05;;;;;;;;;;;;;;;4.77;100.00;98774.31;5049465;28;19927;-56
2023/03/10 01:42:31;;;;;;;;;;;;;;;4.79;100.00;98769.22;5049503;28;19973;-56
2023/03/10 01:45:22;;;;;;;;;;;;;;;4.82;100.00;98772.69;5049876;28;19956;-56
2023/03/10 01:47:47;;;;;;;;;;;;;;;4.86;100.00;98765.13;5016840;28;19917;-57
2023/03/10 01:50:14;;;;;;;;;;;;;;;4.87;100.00;98762.59;5048621;28;19928;-56
2023/03/10 01:52:41;;;;;;;;;;;;;;;4.90;100.00;98761.78;5048951;28;19917;-56
2023/03/10 01:55:07;;;;;;;;;;;;;;;4.93;100.00;98756.75;5051747;28;19932;-57
2023/03/10 01:57:35;;;;;;;;;;;;;;;4.94;100.00;98740.63;5047769;28;19921;-57
2023/03/10 02:00:01;;;;;;;;;;;;;;;4.96;100.00;98737.28;5048343;28;20358;-56
2023/03/10 02:02:26;;;;;;;;;;;;;;;4.96;100.00;98728.78;5049497;28;20015;-56
2023/03/10 02:04:52;;;;;;;;;;;;;;;4.95;100.00;98744.91;5048380;28;19925;-55
2023/03/10 02:07:20;;;;;;;;;;;;;;;4.97;100.00;98750.84;5048748;28;20247;-56
2023/03/10 02:09:46;;;;;;;;;;;;;;;4.99;100.00;98751.75;5048426;28;19916;-56
2023/03/10 02:12:13;;;;;;;;;;;;;;;5.03;100.00;98745.88;5049414;28;19931;-55
2023/03/10 02:14:39;;;;;;;;;;;;;;;5.07;100.00;98752.72;5048924;28;20344;-56
2023/03/10 02:17:06;;;;;;;;;;;;;;;5.11;100.00;98749.41;5044237;28;20063;-56
2023/03/10 02:19:37;;;;;;;;;;;;;;;5.14;100.00;98752.00;5049911;28;19935;-57
2023/03/10 02:22:05;;;;;;;;;;;;;;;5.16;100.00;98747.81;5045513;28;20360;-56
2023/03/10 02:24:38;;;;;;;;;;;;;;;5.19;100.00;98745.28;5049095;28;19928;-56
2023/03/10 02:27:30;;;;;;;;;;;;;;;5.22;100.00;98744.50;5048081;28;19952;-56
2023/03/10 02:29:58;;;;;;;;;;;;;;;5.23;100.00;98731.78;5040914;28;19964;-57
2023/03/10 02:32:24;;;;;;;;;;;;;;;5.23;100.00;98721.56;5047352;28;19921;-56
2023/03/10 02:34:49;;;;;;;;;;;;;;;5.26;100.00;98724.16;5049907;28;19986;-57
2023/03/10 02:37:19;;;;;;;;;;;;;;;5.27;100.00;98718.22;5026766;28;19926;-56
2023/03/10 02:39:44;;;;;;;;;;;;;;;5.27;100.00;98719.91;5038491;28;21582;-56
2023/03/10 02:42:10;;;;;;;;;;;;;;;5.25;100.00;98717.34;5024186;28;20411;-57
2023/03/10 02:44:35;;;;;;;;;;;;;;;5.25;100.00;98709.72;5047728;28;20465;-57
2023/03/10 02:47:00;;;;;;;;;;;;;;;5.27;100.00;98713.13;5046289;28;20011;-56
2023/03/10 02:49:26;;;;;;;;;;;;;;;5.24;100.00;98702.06;5039049;28;20339;-57
2023/03/10 02:51:52;;;;;;;;;;;;;;;5.24;100.00;98696.94;5047310;28;19928;-56
2023/03/10 02:54:17;;;;;;;;;;;;;;;5.23;100.00;98688.47;5049091;28;19998;-56
2023/03/10 02:56:44;;;;;;;;;;;;;;;5.23;100.00;98685.06;5046006;28;20342;-56
2023/03/10 02:59:10;;;;;;;;;;;;;;;5.24;100.00;98702.91;5046244;28;20345;-56
2023/03/10 03:01:35;;;;;;;;;;;;;;;5.23;100.00;98701.19;5048550;28;19920;-56
2023/03/10 03:04:00;;;;;;;;;;;;;;;5.21;100.00;98689.25;5049506;28;19920;-56
2023/03/10 03:06:26;;;;;;;;;;;;;;;5.20;100.00;98690.09;5048291;28;20002;-58
2023/03/10 03:08:52;;;;;;;;;;;;;;;5.20;100.00;98688.41;5047327;28;19923;-57
2023/03/10 03:11:17;;;;;;;;;;;;;;;5.21;100.00;98681.59;5045889;28;20392;-56
2023/03/10 03:13:43;;;;;;;;;;;;;;;5.22;100.00;98684.19;5049171;28;19913;-57
2023/03/10 03:16:09;;;;;;;;;;;;;;;5.22;100.00;98676.56;5048166;28;19916;-56
2023/03/10 03:18:35;;;;;;;;;;;;;;;5.22;100.00;98680.78;5047229;28;19917;-56
2023/03/10 03:21:07;;;;;;;;;;;;;;;5.19;100.00;98678.19;5046881;28;19975;-56
2023/03/10 03:23:33;;;;;;;;;;;;;;;5.16;100.00;98679.00;5047758;28;20053;-56
2023/03/10 03:25:58;;;;;;;;;;;;;;;5.13;100.00;98678.94;5048835;28;19939;-56
2023/03/10 03:28:24;;;;;;;;;;;;;;;5.12;100.00;98674.69;5046297;28;19921;-56
2023/03/10 03:30:49;;;;;;;;;;;;;;;5.11;100.00;98675.53;5047290;28;19941;-56
2023/03/10 03:33:14;;;;;;;;;;;;;;;5.13;100.00;98678.09;5029316;28;19924;-56
2023/03/10 03:35:41;;;;;;;;;;;;;;;5.13;100.00;98678.09;5048870;28;19931;-56
2023/03/10 03:38:07;;;;;;;;;;;;;;;5.14;100.00;98679.81;5048807;28;19982;-56
2023/03/10 03:40:33;;;;;;;;;;;;;;;5.14;100.00;98673.03;5046799;28;19924;-56
2023/03/10 03:42:59;;;;;;;;;;;;;;;5.12;100.00;98677.25;5046118;28;19925;-56
2023/03/10 03:45:25;;;;;;;;;;;;;;;5.12;100.00;98669.59;5046769;28;19991;-57
2023/03/10 03:47:50;;;;;;;;;;;;;;;5.13;100.00;98676.41;5047744;28;20293;-56
2023/03/10 03:50:17;;;;;;;;;;;;;;;5.14;100.00;98673.03;5047227;28;19924;-56
2023/03/10 03:52:42;;;;;;;;;;;;;;;5.17;100.00;98674.78;5047789;28;19917;-56
2023/03/10 03:55:08;;;;;;;;;;;;;;;5.21;100.00;98667.16;5044571;28;19954;-56
2023/03/10 03:57:33;;;;;;;;;;;;;;;5.25;100.00;98658.75;5044153;28;19921;-56
2023/03/10 03:59:59;;;;;;;;;;;;;;;5.30;100.00;98667.31;5047836;28;19920;-56
2023/03/10 04:02:24;;;;;;;;;;;;;;;5.32;100.00;98658.00;5047879;28;19925;-56
2023/03/10 04:04:49;;;;;;;;;;;;;;;5.33;100.00;98662.25;5048641;28;19917;-56
2023/03/10 04:07:15;;;;;;;;;;;;;;;5.36;100.00;98653.81;5043796;28;20011;-56
2023/03/10 04:09:41;;;;;;;;;;;;;;;5.43;100.00;98657.28;5049160;28;20282;-56
2023/03/10 04:12:07;;;;;;;;;;;;;;;5.49;100.00;98657.38;5047433;28;19931;-56
2023/03/10 04:14:33;;;;;;;;;;;;;;;5.58;100.00;98655.81;5048064;28;19920;-57
2023/03/10 04:16:58;;;;;;;;;;;;;;;5.67;100.00;98649.94;5048439;28;20355;-56
2023/03/10 04:19:23;;;;;;;;;;;;;;;5.72;100.00;98648.31;5045564;28;20445;-57
2023/03/10 04:21:48;;;;;;;;;;;;;;;5.81;100.00;98648.41;5048058;28;20377;-57
2023/03/10 04:24:14;;;;;;;;;;;;;;;5.90;100.00;98653.63;5051643;28;20372;-56
2023/03/10 04:26:39;;;;;;;;;;;;;;;6.04;100.00;98642.75;5051357;28;19928;-57
2023/03/10 04:29:04;;;;;;;;;;;;;;;6.15;100.00;98643.72;5051567;28;19923;-56
2023/03/10 04:31:30;;;;;;;;;;;;;;;6.19;100.00;98642.91;5049312;28;20354;-57
2023/03/10 04:33:55;;;;;;;;;;;;;;;6.25;100.00;98649.75;5049732;28;19921;-57
2023/03/10 04:36:20;;;;;;;;;;;;;;;6.35;100.00;98641.34;5050350;28;19932;-57
2023/03/10 04:38:45;;;;;;;;;;;;;;;6.46;100.00;98649.97;5051117;28;19927;-57
2023/03/10 04:41:11;;;;;;;;;;;;;;;6.58;100.00;98646.66;5051301;28;19920;-56
2023/03/10 04:43:36;;;;;;;;;;;;;;;6.72;100.00;98642.53;5054686;28;19925;-56
2023/03/10 04:46:02;;;;;;;;;;;;;;;6.82;100.00;98640.91;5032366;28;19958;-56
2023/03/10 04:48:28;;;;;;;;;;;;;;;6.87;100.00;98635.00;5051235;28;19917;-57
2023/03/10 04:50:54;;;;;;;;;;;;;;;6.90;100.00;98635.00;5050608;28;19927;-56
2023/03/10 04:53:19;;;;;;;;;;;;;;;6.93;100.00;98629.06;5049975;28;19921;-56
2023/03/10 04:55:44;;;;;;;;;;;;;;;6.93;100.00;98629.91;5052001;28;19916;-56
2023/03/10 04:58:09;;;;;;;;;;;;;;;6.93;100.00;98640.13;5048958;28;19920;-56
2023/03/10 05:00:37;;;;;;;;;;;;;;;6.90;100.00;98629.03;5032358;28;19921;-56
2023/03/10 05:03:02;;;;;;;;;;;;;;;6.90;100.00;98629.88;5048612;28;19924;-56
2023/03/10 05:05:28;;;;;;;;;;;;;;;6.95;100.00;98623.13;5051180;28;19917;-56
2023/03/10 05:07:53;;;;;;;;;;;;;;;6.99;100.00;98624.00;5032670;28;20443;-56
2023/03/10 05:10:18;;;;;;;;;;;;;;;6.98;100.00;98628.25;5045869;28;19928;-56
2023/03/10 05:12:43;;;;;;;;;;;;;;;6.97;100.00;98626.53;5048012;28;20025;-57
2023/03/10 05:15:09;;;;;;;;;;;;;;;6.98;100.00;98624.84;5052388;28;19921;-58
2023/03/10 05:17:34;;;;;;;;;;;;;;;6.99;100.00;98619.75;5049417;28;19925;-57
2023/03/10 05:20:00;;;;;;;;;;;;;;;7.01;100.00;98629.09;5049784;28;19960;-56
2023/03/10 05:22:25;;;;;;;;;;;;;;;7.04;100.00;98626.56;5045088;28;19921;-56
2023/03/10 05:24:50;;;;;;;;;;;;;;;7.04;100.00;98626.56;5049965;28;19931;-56
2023/03/10 05:27:18;;;;;;;;;;;;;;;7.03;100.00;98620.59;5036578;28;19921;-56
2023/03/10 05:29:44;;;;;;;;;;;;;;;7.01;100.00;98621.44;5048770;28;19928;-50
2023/03/10 05:32:09;;;;;;;;;;;;;;;6.99;100.00;98619.75;5051318;28;19921;-57
2023/03/10 05:34:34;;;;;;;;;;;;;;;6.99;100.00;98624.84;5027437;28;19932;-56
2023/03/10 05:36:59;;;;;;;;;;;;;;;7.04;100.00;98632.56;5030299;28;19996;-56
2023/03/10 05:39:25;;;;;;;;;;;;;;;7.08;100.00;98630.84;5029790;28;19917;-56
2023/03/10 05:41:50;;;;;;;;;;;;;;;7.10;100.00;98632.59;5029957;28;19921;-56
2023/03/10 05:44:15;;;;;;;;;;;;;;;7.13;100.00;98631.75;5029684;28;19921;-55
2023/03/10 05:46:40;;;;;;;;;;;;;;;7.15;100.00;98632.59;5030917;28;19917;-56
2023/03/10 05:49:06;;;;;;;;;;;;;;;7.12;100.00;98640.25;5024629;28;19932;-58
2023/03/10 05:51:31;;;;;;;;;;;;;;;7.08;100.00;98636.81;5030934;28;20266;-56
2023/03/10 05:53:56;;;;;;;;;;;;;;;7.05;100.00;98639.38;5029951;28;20373;-56
2023/03/10 05:56:22;;;;;;;;;;;;;;;7.07;100.00;98634.25;5030584;28;19917;-56
2023/03/10 05:58:49;;;;;;;;;;;;;;;7.05;100.00;98634.25;5028872;28;19940;-56
2023/03/10 06:01:15;;;;;;;;;;;;;;;7.01;100.00;98629.97;5027419;28;20066;-56
2023/03/10 06:03:40;;;;;;;;;;;;;;;7.04;100.00;98629.13;5024919;28;20423;-56
2023/03/10 06:06:06;;;;;;;;;;;;;;;7.08;100.00;98625.75;5036807;28;19921;-56
2023/03/10 06:08:31;;;;;;;;;;;;;;;7.09;100.00;98633.41;5034034;28;20500;-56
2023/03/10 06:10:57;;;;;;;;;;;;;;;7.08;100.00;98638.53;5035241;28;19929;-56
2023/03/10 06:13:22;;;;;;;;;;;;;;;7.07;100.00;98642.78;5025487;28;19921;-56
2023/03/10 06:15:52;;;;;;;;;;;;;;;7.10;100.00;98636.81;5032162;28;20070;-56
2023/03/10 06:18:18;;;;;;;;;;;;;;;7.12;100.00;98635.16;5027444;28;19921;-56
2023/03/10 06:20:43;;;;;;;;;;;;;;;7.14;100.00;98636.00;5028336;28;19921;-56
2023/03/10 06:23:08;;;;;;;;;;;;;;;7.18;100.00;98642.84;5026864;28;19929;-57
2023/03/10 06:25:34;;;;;;;;;;;;;;;7.20;100.00;98643.72;5028437;28;19928;-56
2023/03/10 06:27:59;;;;;;;;;;;;;;;7.21;100.00;98638.59;5029143;28;19917;-56
2023/03/10 06:30:24;;;;;;;;;;;;;;;7.21;100.00;98642.84;5029428;28;19924;-56
2023/03/10 06:32:49;;;;;;;;;;;;;;;7.21;100.00;98653.94;5028788;28;19944;-56
2023/03/10 06:35:15;;;;;;;;;;;;;;;7.21;100.00;98651.38;5039407;28;20297;-58
2023/03/10 06:37:40;;;;;;;;;;;;;;;7.21;100.00;98653.94;5047571;28;19921;-59
2023/03/10 06:40:07;;;;;;;;;;;;;;;7.22;100.00;98657.38;5049993;28;19917;-58
2023/03/10 06:42:32;;;;;;;;;;;;;;;7.20;100.00;98653.94;5047707;28;19920;-56
2023/03/10 06:44:58;;;;;;;;;;;;;;;7.24;100.00;98656.53;5049903;28;20263;-56
2023/03/10 06:47:23;;;;;;;;;;;;;;;7.28;100.00;98659.97;5047197;28;20411;-56
2023/03/10 06:49:48;;;;;;;;;;;;;;;7.31;100.00;98661.69;5048746;28;19920;-57
2023/03/10 06:52:13;;;;;;;;;;;;;;;7.31;100.00;98664.22;5045900;28;19928;-57
2023/03/10 06:54:39;;;;;;;;;;;;;;;7.30;100.00;98671.03;5041791;28;19931;-56
2023/03/10 06:57:04;;;;;;;;;;;;;;;7.30;100.00;98655.72;5046154;28;20400;-57
2023/03/10 06:59:30;;;;;;;;;;;;;;;7.30;100.00;98655.72;5044213;28;20221;-56
2023/03/10 07:01:55;;;;;;;;;;;;;;;7.30;100.00;98663.38;5045983;28;20349;-58
2023/03/10 07:04:20;;;;;;;;;;;;;;;7.29;100.00;98666.78;5030979;28;19920;-57
2023/03/10 07:06:46;;;;;;;;;;;;;;;7.28;100.00;98662.53;5048395;28;19917;-56
2023/03/10 07:09:11;;;;;;;;;;;;;;;7.28;100.00;98659.09;5048613;28;20011;-57
2023/03/10 07:11:36;;;;;;;;;;;;;;;7.26;100.00;98659.09;5046724;28;20027;-57
2023/03/10 07:14:02;;;;;;;;;;;;;;;7.25;100.00;98659.94;5044372;28;19960;-57
2023/03/10 07:16:27;;;;;;;;;;;;;;;7.24;100.00;98671.88;5049018;28;19924;-57
2023/03/10 07:18:52;;;;;;;;;;;;;;;7.26;100.00;98675.28;5047857;28;19921;-56
2023/03/10 07:21:19;;;;;;;;;;;;;;;7.26;100.00;98669.31;5048680;28;19924;-57
2023/03/10 07:23:44;;;;;;;;;;;;;;;7.24;100.00;98676.13;5045551;28;19921;-57
2023/03/10 07:26:11;;;;;;;;;;;;;;;7.20;100.00;98675.22;5046194;28;19916;-57
2023/03/10 07:28:37;;;;;;;;;;;;;;;7.18;100.00;98670.97;5046242;28;19944;-57
2023/03/10 07:31:04;;;;;;;;;;;;;;;7.18;100.00;98682.03;5048931;28;19921;-57
2023/03/10 07:33:29;;;;;;;;;;;;;;;7.18;100.00;98682.03;5047790;28;19920;-56
2023/03/10 07:35:54;;;;;;;;;;;;;;;7.20;100.00;98682.91;5047513;28;19920;-57
2023/03/10 07:38:19;;;;;;;;;;;;;;;7.22;100.00;98686.34;5046570;28;19971;-56
2023/03/10 07:40:45;;;;;;;;;;;;;;;7.21;100.00;98681.19;5048857;28;19960;-57
2023/03/10 07:43:10;;;;;;;;;;;;;;;7.22;100.00;98686.34;5048293;28;19925;-57
2023/03/10 07:45:36;;;;;;;;;;;;;;;7.23;100.00;98688.03;5047269;28;19992;-57
2023/03/10 07:48:01;;;;;;;;;;;;;;;7.25;100.00;98680.38;5045642;28;19916;-56
2023/03/10 07:50:26;;;;;;;;;;;;;;;7.28;100.00;98685.53;5048112;28;19935;-57
2023/03/10 07:52:53;;;;;;;;;;;;;;;7.37;100.00;98688.13;5047904;28;19920;-57
2023/03/10 07:55:20;;;;;;;;;;;;;;;7.48;100.00;98689.06;5051538;28;20019;-57
2023/03/10 07:57:45;;;;;;;;;;;;;;;7.58;100.00;98686.53;5051553;28;22367;-57
2023/03/10 08:00:10;;;;;;;;;;;;;;;7.64;100.00;98687.41;5051490;28;20431;-56
2023/03/10 08:02:36;;;;;;;;;;;;;;;7.67;100.00;98687.44;5045124;28;20356;-57
2023/03/10 08:05:01;;;;;;;;;;;;;;;7.73;100.00;98682.34;5051155;28;19920;-57
2023/03/10 08:07:26;;;;;;;;;;;;;;;7.84;100.00;98682.41;5052363;28;19974;-57
2023/03/10 08:09:52;;;;;;;;;;;;;;;7.94;100.00;98681.56;5051315;28;19928;-57
2023/03/10 08:12:19;;;;;;;;;;;;;;;8.10;100.00;98687.59;5050445;28;19928;-57
2023/03/10 08:14:45;;;;;;;;;;;;;;;8.33;100.00;98685.13;5032629;28;20011;-57
2023/03/10 08:17:10;;;;;;;;;;;;;;;8.58;100.00;98686.91;5050414;28;19996;-57
2023/03/10 08:19:36;;;;;;;;;;;;;;;8.79;100.00;98690.31;5051178;28;19928;-57
2023/03/10 08:22:01;;;;;;;;;;;;;;;9.05;100.00;98688.63;5050871;28;20136;-56
2023/03/10 08:24:26;;;;;;;;;;;;;;;9.20;100.00;98689.47;5051522;28;19992;-56
2023/03/10 08:26:52;;;;;;;;;;;;;;;9.23;100.00;98689.47;5049739;28;19932;-56
2023/03/10 08:29:17;;;;;;;;;;;;;;;9.27;100.00;98691.16;5051453;28;19920;-57
2023/03/10 08:31:42;;;;;;;;;;;;;;;9.35;100.00;98692.00;5050975;28;19928;-56
2023/03/10 08:34:08;;;;;;;;;;;;;;;9.43;100.00;98684.28;5052044;28;19963;-57
2023/03/10 08:36:33;;;;;;;;;;;;;;;9.46;100.00;98689.41;5045862;28;19924;-57
2023/03/10 08:38:59;;;;;;;;;;;;;;;9.47;100.00;98686.84;5049624;28;20401;-57
2023/03/10 08:41:29;;;;;;;;;;;;;;;9.47;100.00;98689.41;5051621;28;19920;-57
2023/03/10 08:43:56;;;;;;;;;;;;;;;9.46;100.00;98695.38;5050539;28;19956;-57
2023/03/10 08:46:23;;;;;;;;;;;;;;;9.42;100.00;98691.13;5051852;28;19995;-60
2023/03/10 08:48:48;;;;;;;;;;;;;;;9.40;100.00;98696.28;5050800;28;19921;-60
2023/03/10 08:51:14;;;;;;;;;;;;;;;9.41;100.00;98692.00;5049637;28;20287;-61
2023/03/10 08:53:39;;;;;;;;;;;;;;;9.44;100.00;98693.69;5048881;28;19928;-61
2023/03/10 08:56:05;;;;;;;;;;;;;;;9.52;100.00;98695.38;5050684;28;19925;-61
2023/03/10 08:58:31;;;;;;;;;;;;;;;9.65;100.00;98697.06;5050123;28;19963;-60
2023/03/10 09:00:56;;;;;;;;;;;;;;;9.84;100.00;98682.47;5048089;28;19923;-60
2023/03/10 09:03:21;;;;;;;;;;;;;;;10.03;100.00;98693.50;5050172;28;19920;-60
2023/03/10 09:05:47;;;;;;;;;;;;;;;10.01;100.00;98689.22;5048737;28;20023;-56
2023/03/10 09:08:12;;;;;;;;;;;;;;;9.97;100.00;98690.97;5050344;28;20279;-56
2023/03/10 09:10:39;;;;;;;;;;;;;;;9.95;100.00;98687.56;5049098;28;20090;-58
2023/03/10 09:13:04;;;;;;;;;;;;;;;9.88;100.00;98685.84;5049185;28;20388;-58
2023/03/10 09:15:29;;;;;;;;;;;;;;;9.80;100.00;98685.03;5047986;28;19916;-59
2023/03/10 09:17:55;;;;;;;;;;;;;;;9.70;100.00;98676.50;5050215;28;19924;-59
2023/03/10 09:20:24;;;;;;;;;;;;;;;9.66;100.00;98685.09;5050738;28;19917;-60
2023/03/10 09:22:50;;;;;;;;;;;;;;;9.61;100.00;98679.97;5049689;28;19917;-58
2023/03/10 09:25:15;;;;;;;;;;;;;;;9.59;100.00;98689.38;5046938;28;19928;-58
2023/03/10 09:27:41;;;;;;;;;;;;;;;9.59;100.00;98686.81;5048495;28;19920;-58
2023/03/10 09:30:06;;;;;;;;;;;;;;;9.60;100.00;98682.53;5050676;28;19917;-58
2023/03/10 09:32:32;;;;;;;;;;;;;;;9.62;100.00;98684.22;5048816;28;19951;-58
2023/03/10 09:34:57;;;;;;;;;;;;;;;9.65;100.00;98681.69;5044251;28;20044;-58
2023/03/10 09:37:22;;;;;;;;;;;;;;;9.65;100.00;98676.53;5047185;28;19925;-57
2023/03/10 09:39:47;;;;;;;;;;;;;;;9.67;100.00;98672.25;5048599;28;19927;-55
2023/03/10 09:42:13;;;;;;;;;;;;;;;9.66;100.00;98678.25;5049718;28;19920;-57
2023/03/10 09:45:07;;;;;;;;;;;;;;;9.65;100.00;98663.72;5048709;28;20478;-60
2023/03/10 09:47:33;;;;;;;;;;;;;;;9.65;100.00;98678.25;5030288;28;20019;-57
2023/03/10 09:50:10;;;;;;;;;;;;;;;9.65;100.00;98680.81;5050634;28;20004;-57
2023/03/10 09:52:46;;;;;;;;;;;;;;;9.63;100.00;98679.94;5044841;28;19920;-57
2023/03/10 09:55:18;;;;;;;;;;;;;;;9.62;100.00;98688.50;5047628;28;19917;-57
2023/03/10 09:57:45;;;;;;;;;;;;;;;9.68;100.00;98689.34;5046764;28;19948;-57
2023/03/10 10:00:16;;;;;;;;;;;;;;;9.89;100.00;98682.44;5045630;28;19925;-57
2023/03/10 10:02:45;;;;;;;;;;;;;;;10.01;100.00;98700.38;5050918;28;20016;-58
2023/03/10 10:05:23;;;;;;;;;;;;;;;10.03;100.00;98698.63;5046886;28;19963;-57
2023/03/10 10:07:51;;;;;;;;;;;;;;;9.99;100.00;98699.50;5049625;28;19917;-57
2023/03/10 10:10:24;;;;;;;;;;;;;;;9.96;100.00;98709.81;5048937;28;19917;-57
2023/03/10 10:12:51;;;;;;;;;;;;;;;9.94;100.00;98702.06;5047988;28;19974;-60
2023/03/10 10:15:26;;;;;;;;;;;;;;;9.93;100.00;98704.66;5048186;28;19977;-57
2023/03/10 10:17:51;;;;;;;;;;;;;;;9.90;100.00;98707.25;5047946;28;20306;-57
2023/03/10 10:20:57;;;;;;;;;;;;;;;9.90;100.00;98708.09;5049448;28;19983;-57
2023/03/10 10:23:23;;;;;;;;;;;;;;;9.90;100.00;98704.69;4976202;28;19961;-57
2023/03/10 10:25:48;;;;;;;;;;;;;;;9.93;100.00;98704.66;4976306;28;20372;-57
2023/03/10 10:28:18;;;;;;;;;;;;;;;9.96;100.00;98708.94;5014693;28;19917;-57
2023/03/10 10:30:43;;;;;;;;;;;;;;;9.92;100.00;98711.50;5049274;28;20405;-58
2023/03/10 10:33:10;;;;;;;;;;;;;;;9.87;100.00;98718.38;5046829;28;19959;-57
2023/03/10 10:35:36;;;;;;;;;;;;;;;9.82;100.00;98714.97;5048164;28;20340;-57
2023/03/10 10:38:16;;;;;;;;;;;;;;;9.79;100.00;98720.13;5047438;28;19963;-57
2023/03/10 10:40:50;;;;;;;;;;;;;;;9.78;100.00;98715.00;5049143;28;19928;-57
2023/03/10 10:43:17;;;;;;;;;;;;;;;9.73;100.00;98709.88;5039951;28;19916;-57
2023/03/10 10:45:42;;;;;;;;;;;;;;;9.70;100.00;98711.59;5047811;28;19924;-60
2023/03/10 10:48:27;;;;;;;;;;;;;;;9.64;100.00;98710.72;5048517;28;20286;-58
2023/03/10 10:50:53;;;;;;;;;;;;;;;9.58;100.00;98709.91;5045680;28;19924;-57
2023/03/10 10:53:20;;;;;;;;;;;;;;;9.52;100.00;98705.63;5042539;28;20346;-58
2023/03/10 10:55:47;;;;;;;;;;;;;;;9.46;100.00;98705.66;5046500;28;20062;-57
2023/03/10 10:58:41;;;;;;;;;;;;;;;9.41;100.00;98707.38;5046188;28;19917;-57
2023/03/10 11:01:08;;;;;;;;;;;;;;;9.39;100.00;98703.94;5032312;28;19959;-57
2023/03/10 11:03:39;;;;;;;;;;;;;;;9.39;100.00;98699.69;5049320;28;20365;-57
2023/03/10 11:06:12;;;;;;;;;;;;;;;9.42;100.00;98690.28;5047616;28;19931;-57
2023/03/10 11:08:39;;;;;;;;;;;;;;;9.49;100.00;98690.25;5047443;28;19917;-57
2023/03/10 11:11:17;;;;;;;;;;;;;;;9.54;100.00;98701.38;5046784;28;19983;-57
2023/03/10 11:13:51;;;;;;;;;;;;;;;9.56;100.00;98697.06;5047743;28;19929;-57
2023/03/10 11:16:27;;;;;;;;;;;;;;;9.56;100.00;98699.66;5042618;28;20011;-57
2023/03/10 11:19:00;;;;;;;;;;;;;;;9.52;100.00;98697.94;5048727;28;20341;-57
2023/03/10 11:21:31;;;;;;;;;;;;;;;9.49;100.00;98697.09;5042904;28;19921;-57
2023/03/10 11:24:02;;;;;;;;;;;;;;;9.50;100.00;98686.84;5042721;28;20540;-57
2023/03/10 11:26:46;;;;;;;;;;;;;;;9.49;100.00;98686.84;5047752;28;19921;-58
2023/03/10 11:29:11;;;;;;;;;;;;;;;9.48;100.00;98677.44;5047877;28;19917;-58
2023/03/10 11:31:36;;;;;;;;;;;;;;;9.49;100.00;98672.31;5048839;28;19917;-58
2023/03/10 11:34:04;;;;;;;;;;;;;;;9.48;100.00;98678.31;5046082;28;20019;-58
2023/03/10 11:36:35;;;;;;;;;;;;;;;9.42;100.00;98673.19;5047924;28;19921;-57
2023/03/10 11:39:05;;;;;;;;;;;;;;;9.36;100.00;98665.50;5048073;28;19923;-62
2023/03/10 11:41:35;;;;;;;;;;;;;;;9.34;100.00;98659.50;5048599;28;20305;-57
2023/03/10 11:44:20;;;;;;;;;;;;;;;9.35;100.00;98656.09;5048391;28;19917;-61
2023/03/10 11:46:45;;;;;;;;;;;;;;;9.34;100.00;98649.25;5047133;28;19921;-58
2023/03/10 11:49:11;;;;;;;;;;;;;;;9.32;100.00;98651.81;5047932;28;20268;-57
2023/03/10 11:51:37;;;;;;;;;;;;;;;9.29;100.00;98646.72;5047202;28;20393;-57
2023/03/10 11:54:09;;;;;;;;;;;;;;;9.27;100.00;98642.44;5049069;28;19913;-58
2023/03/10 11:56:36;;;;;;;;;;;;;;;9.25;100.00;98646.72;5047586;28;19939;-58
2023/03/10 11:59:07;;;;;;;;;;;;;;;9.24;100.00;98634.75;5045532;28;19924;-58
2023/03/10 12:01:39;;;;;;;;;;;;;;;9.21;100.00;98632.19;5045528;28;19925;-57
2023/03/10 12:04:11;;;;;;;;;;;;;;;9.13;100.00;98632.22;5043762;28;19920;-57
2023/03/10 12:06:37;;;;;;;;;;;;;;;9.12;100.00;98630.50;5047531;28;19917;-57
2023/03/10 12:09:04;;;;;;;;;;;;;;;9.09;100.00;98631.34;5047336;28;20392;-58
2023/03/10 12:11:30;;;;;;;;;;;;;;;9.12;100.00;98633.91;5044905;28;19947;-58
2023/03/10 12:13:57;;;;;;;;;;;;;;;9.17;100.00;98635.63;5048992;28;20362;-58
2023/03/10 12:16:24;;;;;;;;;;;;;;;9.17;100.00;98627.94;5047281;28;19919;-57
2023/03/10 12:18:49;;;;;;;;;;;;;;;9.17;100.00;98635.63;5049021;28;20266;-57
2023/03/10 12:21:15;;;;;;;;;;;;;;;9.21;100.00;98633.03;5045294;28;19924;-57
2023/03/10 12:23:41;;;;;;;;;;;;;;;9.26;100.00;98618.50;5048668;28;19924;-57
2023/03/10 12:26:07;;;;;;;;;;;;;;;9.35;100.00;98620.19;5046831;28;20362;-57
2023/03/10 12:28:32;;;;;;;;;;;;;;;9.42;100.00;98615.91;5047718;28;19971;-57
2023/03/10 12:31:05;;;;;;;;;;;;;;;9.47;100.00;98612.47;5045466;28;19924;-56
2023/03/10 12:33:36;;;;;;;;;;;;;;;9.58;100.00;98615.81;5041036;28;19955;-59
2023/03/10 12:36:04;;;;;;;;;;;;;;;9.71;100.00;98608.06;5021809;28;20136;-59
2023/03/10 12:38:41;;;;;;;;;;;;;;;9.82;100.00;98606.31;5027192;28;20350;-59
2023/03/10 12:41:07;;;;;;;;;;;;;;;9.88;100.00;98608.84;5027231;28;19979;-58
2023/03/10 12:43:52;;;;;;;;;;;;;;;9.84;100.00;98620.00;5030981;28;20370;-58